createdAt,value
2019-02-09T00:03:39.452Z,6.2
2019-02-09T00:09:03.374Z,6.2
2019-02-09T00:14:31.457Z,6.1
2019-02-09T00:19:59.334Z,6.1
2019-02-09T00:25:27.282Z,6.2
2019-02-09T00:30:55.230Z,6.2
2019-02-09T00:36:24.217Z,6.2
2019-02-09T00:41:52.294Z,6.2
2019-02-09T00:47:21.291Z,6.2
2019-02-09T00:52:50.344Z,6.2
2019-02-09T00:58:19.366Z,6.2
2019-02-09T01:03:47.226Z,6.2
2019-02-09T01:09:16.211Z,6.2
2019-02-09T01:14:44.146Z,6.2
2019-02-09T01:20:12.452Z,6.2
2019-02-09T01:25:40.324Z,6.2
2019-02-09T01:31:09.193Z,6.2
2019-02-09T01:36:37.124Z,6.2
2019-02-09T01:42:07.073Z,6.2
2019-02-09T01:47:34.055Z,6.2
2019-02-09T01:53:02.053Z,6.2
2019-02-09T01:58:30.476Z,6.2
2019-02-09T02:04:02.361Z,6.3
2019-02-09T02:09:28.205Z,6.3
2019-02-09T02:14:57.120Z,6.3
2019-02-09T02:20:25.092Z,6.3
2019-02-09T02:25:53.059Z,6.3
2019-02-09T02:31:22.034Z,6.3
2019-02-09T02:36:50.132Z,6.3
2019-02-09T02:42:18.080Z,6.3
2019-02-09T02:47:46.204Z,6.3
2019-02-09T02:53:16.674Z,6.3
2019-02-09T02:58:43.142Z,6.3
2019-02-09T03:04:11.103Z,6.3
2019-02-09T03:09:40.124Z,6.4
2019-02-09T03:15:08.053Z,6.4
2019-02-09T03:20:36.346Z,6.4
2019-02-09T03:26:05.037Z,6.4
2019-02-09T03:31:34.338Z,6.4
2019-02-09T03:37:03.089Z,6.4
2019-02-09T03:42:31.111Z,6.4
2019-02-09T03:48:00.368Z,6.5
2019-02-09T03:53:28.107Z,6.5
2019-02-09T03:58:56.185Z,6.5
2019-02-09T04:04:24.291Z,6.5
2019-02-09T04:09:52.361Z,6.5
2019-02-09T04:15:20.574Z,6.5
2019-02-09T04:20:48.311Z,6.5
2019-02-09T04:26:16.401Z,6.5
2019-02-09T04:31:45.286Z,6.6
2019-02-09T04:37:13.278Z,6.6
2019-02-09T04:42:42.494Z,6.6
2019-02-09T04:48:11.307Z,6.6
2019-02-09T04:53:39.322Z,6.6
2019-02-09T04:59:07.386Z,6.6
2019-02-09T05:04:36.402Z,6.6
2019-02-09T05:10:04.440Z,6.6
2019-02-09T05:15:32.641Z,6.6
2019-02-09T05:21:00.482Z,6.6
2019-02-09T05:26:29.480Z,6.6
2019-02-09T05:31:57.723Z,6.5
2019-02-09T05:37:26.555Z,6.5
2019-02-09T05:42:54.556Z,6.5
2019-02-09T05:48:23.888Z,6.5
2019-02-09T05:53:51.537Z,6.4
2019-02-09T05:59:19.613Z,6.3
2019-02-09T06:04:47.590Z,6.3
2019-02-09T06:10:15.571Z,6.2
2019-02-09T06:15:44.506Z,6.2
2019-02-09T06:21:13.491Z,6.2
2019-02-09T06:26:41.495Z,6.1
2019-02-09T06:32:09.442Z,6.1
2019-02-09T06:37:38.953Z,6.1
2019-02-09T06:43:06.407Z,6.1
2019-02-09T06:48:35.490Z,6.1
2019-02-09T06:54:03.366Z,6.1
2019-02-09T06:59:32.404Z,6.1
2019-02-09T07:05:01.446Z,6.1
2019-02-09T07:10:29.436Z,6.1
2019-02-09T07:15:57.406Z,6.1
2019-02-09T07:21:26.404Z,6
2019-02-09T07:26:55.400Z,6
2019-02-09T07:32:23.222Z,6
2019-02-09T07:37:51.160Z,6
2019-02-09T07:43:20.478Z,6
2019-02-09T07:48:48.140Z,6
2019-02-09T07:54:16.121Z,6
2019-02-09T07:59:45.050Z,6
2019-02-09T08:05:14.114Z,6
2019-02-09T08:10:42.234Z,6
2019-02-09T08:16:10.078Z,6
2019-02-09T08:21:37.904Z,6.1
2019-02-09T08:27:05.895Z,6.1
2019-02-09T08:32:36.894Z,6.1
2019-02-09T08:38:01.862Z,6.1
2019-02-09T08:43:29.772Z,6.2
2019-02-09T08:48:58.759Z,6.2
2019-02-09T08:54:27.861Z,6.3
2019-02-09T08:59:55.822Z,6.2
2019-02-09T09:05:23.698Z,6.2
2019-02-09T09:10:52.042Z,6.2
2019-02-09T09:16:20.670Z,6.2
2019-02-09T09:21:48.664Z,6.2
2019-02-09T09:27:17.634Z,6.2
2019-02-09T09:32:45.603Z,6.2
2019-02-09T09:38:13.808Z,6.3
2019-02-09T09:43:41.691Z,6.4
2019-02-09T09:49:10.646Z,6.5
2019-02-09T09:54:38.882Z,6.5
2019-02-09T10:00:07.768Z,6.5
2019-02-09T10:05:35.725Z,6.6
2019-02-09T10:11:03.779Z,6.6
2019-02-09T10:16:31.732Z,6.7
2019-02-09T10:21:59.845Z,6.7
2019-02-09T10:27:28.780Z,6.8
2019-02-09T10:32:56.823Z,6.8
2019-02-09T10:38:25.860Z,6.9
2019-02-09T10:43:53.940Z,6.9
2019-02-09T10:49:22.031Z,6.9
2019-02-09T10:54:50.221Z,6.8
2019-02-09T11:00:19.210Z,6.8
2019-02-09T11:05:47.124Z,6.7
2019-02-09T11:11:16.163Z,6.7
2019-02-09T11:16:44.208Z,6.7
2019-02-09T11:22:13.400Z,6.7
2019-02-09T11:27:41.225Z,6.7
2019-02-09T11:33:09.460Z,6.6
2019-02-09T11:38:37.376Z,6.6
2019-02-09T11:44:06.360Z,6.6
2019-02-09T11:49:34.391Z,6.5
2019-02-09T11:55:03.369Z,6.5
2019-02-09T12:00:32.364Z,6.4
2019-02-09T12:06:00.437Z,6.3
2019-02-09T12:11:29.433Z,6.3
2019-02-09T12:16:58.308Z,6.3
2019-02-09T12:22:27.476Z,6.3
2019-02-09T12:27:56.314Z,6.3
2019-02-09T12:33:25.301Z,6.1
2019-02-09T12:38:54.260Z,6
2019-02-09T12:44:23.301Z,5.9
2019-02-09T12:49:52.146Z,5.8
2019-02-09T12:55:20.476Z,5.7
2019-02-09T13:00:48.228Z,5.7
2019-02-09T13:06:17.009Z,5.6
2019-02-09T13:11:44.908Z,5.6
2019-02-09T13:17:13.861Z,5.5
2019-02-09T13:22:42.510Z,5.5
2019-02-09T13:28:09.722Z,5.4
2019-02-09T13:33:38.878Z,5.4
2019-02-09T13:39:05.602Z,5.4
2019-02-09T13:44:33.564Z,5.4
2019-02-09T13:50:02.673Z,5.3
2019-02-09T13:55:31.448Z,5.3
2019-02-09T14:00:59.259Z,5.3
2019-02-09T14:06:27.248Z,5.3
2019-02-09T14:11:55.132Z,5.3
2019-02-09T14:17:23.025Z,5.3
2019-02-09T14:22:51.943Z,5.3
2019-02-09T14:28:20.972Z,5.3
2019-02-09T14:33:54.509Z,5.4
2019-02-09T14:39:17.741Z,5.4
2019-02-09T14:44:46.696Z,5.4
2019-02-09T14:50:15.557Z,5.4
2019-02-09T14:55:44.448Z,5.5
2019-02-09T15:01:13.389Z,5.5
2019-02-09T15:06:42.308Z,5.5
2019-02-09T15:12:10.406Z,5.5
2019-02-09T15:17:39.148Z,5.5
2019-02-09T15:23:07.116Z,5.5
2019-02-09T15:28:36.009Z,5.5
2019-02-09T15:34:10.050Z,5.5
2019-02-09T15:39:33.902Z,5.6
2019-02-09T15:45:01.941Z,5.6
2019-02-09T15:50:29.731Z,5.6
2019-02-09T15:55:57.676Z,5.6
2019-02-09T16:01:26.567Z,5.6
2019-02-09T16:06:54.513Z,5.6
2019-02-09T16:12:22.425Z,5.6
2019-02-09T16:17:51.327Z,5.6
2019-02-09T16:23:20.323Z,5.6
2019-02-09T16:28:49.280Z,5.6
2019-02-09T16:34:25.141Z,5.6
2019-02-09T16:39:46.129Z,5.6
2019-02-09T16:45:15.064Z,5.6
2019-02-09T16:50:44.021Z,5.5
2019-02-09T16:56:12.917Z,5.5
2019-02-09T17:01:41.850Z,5.6
2019-02-09T17:07:10.761Z,5.6
2019-02-09T17:12:38.692Z,5.6
2019-02-09T17:18:07.572Z,5.6
2019-02-09T17:23:36.695Z,5.6
2019-02-09T17:29:04.481Z,5.7
2019-02-09T17:34:32.370Z,5.7
2019-02-09T17:40:01.397Z,5.7
2019-02-09T17:45:30.398Z,5.7
2019-02-09T17:50:58.366Z,5.7
2019-02-09T17:56:26.108Z,5.7
2019-02-09T18:01:54.074Z,5.8
2019-02-09T18:07:23.200Z,5.8
2019-02-09T18:12:52.557Z,5.8
2019-02-09T18:18:20.993Z,5.8
2019-02-09T18:23:50.123Z,5.8
2019-02-09T18:29:18.984Z,5.8
2019-02-09T18:34:46.748Z,5.8
2019-02-09T18:40:14.872Z,5.8
2019-02-09T18:45:43.658Z,5.9
2019-02-09T18:51:12.674Z,5.9
2019-02-09T18:56:41.603Z,5.9
2019-02-09T19:02:10.533Z,5.9
2019-02-09T19:07:38.486Z,5.9
2019-02-09T19:13:06.424Z,5.9
2019-02-09T19:18:35.485Z,5.9
2019-02-09T19:24:04.386Z,5.9
2019-02-09T19:29:33.464Z,5.9
2019-02-09T19:35:02.374Z,5.9
2019-02-09T19:40:30.567Z,5.9
2019-02-09T19:45:58.253Z,5.9
2019-02-09T19:51:27.143Z,5.9
2019-02-09T19:56:55.117Z,5.9
2019-02-09T20:02:24.052Z,5.9
2019-02-09T20:07:53.024Z,5.9
2019-02-09T20:13:21.971Z,5.8
2019-02-09T20:18:49.895Z,5.8
2019-02-09T20:24:18.802Z,5.8
2019-02-09T20:29:46.764Z,5.8
2019-02-09T20:35:14.782Z,5.8
2019-02-09T20:40:42.654Z,5.8
2019-02-09T20:46:10.721Z,5.8
2019-02-09T20:51:39.690Z,5.7
2019-02-09T20:57:07.570Z,5.7
2019-02-09T21:02:35.410Z,5.6
2019-02-09T21:08:03.543Z,5.5
2019-02-09T21:13:31.301Z,5.4
2019-02-09T21:18:59.206Z,5.4
2019-02-09T21:24:27.224Z,5.4
2019-02-09T21:29:55.993Z,5.3
2019-02-09T21:35:23.927Z,5.3
2019-02-09T21:40:53.065Z,5.3
2019-02-09T21:46:20.837Z,5.3
2019-02-09T21:51:48.666Z,5.3
2019-02-09T21:57:16.521Z,5.2
2019-02-09T22:02:45.443Z,5.2
2019-02-09T22:08:19.184Z,5.2
2019-02-09T22:13:42.397Z,5.2
2019-02-09T22:19:11.103Z,5.2
2019-02-09T22:24:38.984Z,5.2
2019-02-09T22:30:06.867Z,5.2
2019-02-09T22:35:35.922Z,5.1
2019-02-09T22:41:04.674Z,5.1
2019-02-09T22:46:33.581Z,5.1
2019-02-09T22:52:02.537Z,5.1
2019-02-09T22:57:30.413Z,5.1
2019-02-09T23:02:59.307Z,5.1
2019-02-09T23:08:27.286Z,5.1
2019-02-09T23:13:55.055Z,5.1
2019-02-09T23:19:23.001Z,5.1
2019-02-09T23:24:50.856Z,5
2019-02-09T23:30:18.970Z,5
2019-02-09T23:35:46.622Z,5
2019-02-09T23:41:15.526Z,5
2019-02-09T23:46:43.363Z,5
2019-02-09T23:52:11.317Z,5
2019-02-09T23:57:40.347Z,5
